createdAt,value
2022-08-07T00:02:35.418Z,53.08
2022-08-07T00:04:06.225Z,53.18
2022-08-07T00:06:36.053Z,53.65
2022-08-07T00:09:16.101Z,53.81
2022-08-07T00:11:53.882Z,54.05
2022-08-07T00:14:25.506Z,54.22
2022-08-07T00:16:57.517Z,54.82
2022-08-07T00:19:26.191Z,54.90
2022-08-07T00:22:10.767Z,54.78
2022-08-07T00:24:38.649Z,55.32
2022-08-07T00:27:07.257Z,55.66
2022-08-07T00:29:37.058Z,55.63
2022-08-07T00:32:05.913Z,55.84
2022-08-07T00:34:35.648Z,56.09
2022-08-07T00:37:05.078Z,55.88
2022-08-07T00:39:34.009Z,56.07
2022-08-07T00:42:02.350Z,56.44
2022-08-07T00:44:33.538Z,56.09
2022-08-07T00:47:06.571Z,55.98
2022-08-07T00:50:19.509Z,56.75
2022-08-07T00:52:29.444Z,56.39
2022-08-07T00:55:00.016Z,56.44
2022-08-07T00:57:34.103Z,57.05
2022-08-07T01:00:01.098Z,56.79
2022-08-07T01:02:29.753Z,57.65
2022-08-07T01:04:58.567Z,57.83
2022-08-07T01:07:28.587Z,57.50
2022-08-07T01:10:07.011Z,57.45
2022-08-07T01:12:53.349Z,57.56
2022-08-07T01:15:35.752Z,57.35
2022-08-07T01:18:16.915Z,57.29
2022-08-07T01:20:59.617Z,58.47
2022-08-07T01:23:38.559Z,58.93
2022-08-07T01:26:12.079Z,59.68
2022-08-07T01:28:49.830Z,59.30
2022-08-07T01:31:27.840Z,58.76
2022-08-07T01:34:09.000Z,58.79
2022-08-07T01:36:40.858Z,58.54
2022-08-07T01:39:13.989Z,58.31
2022-08-07T01:42:07.735Z,58.36
2022-08-07T01:44:34.877Z,58.68
2022-08-07T01:48:16.399Z,58.76
2022-08-07T01:49:53.656Z,59.19
2022-08-07T01:52:26.641Z,59.71
2022-08-07T01:54:56.244Z,59.50
2022-08-07T01:58:06.820Z,59.82
2022-08-07T02:00:28.893Z,60.14
2022-08-07T02:03:12.247Z,60.30
2022-08-07T02:06:02.310Z,61.03
2022-08-07T02:08:41.024Z,60.80
2022-08-07T02:11:10.502Z,61.14
2022-08-07T02:14:02.350Z,61.49
2022-08-07T02:16:33.708Z,61.73
2022-08-07T02:20:05.206Z,62.20
2022-08-07T02:22:01.709Z,62.17
2022-08-07T02:24:30.304Z,61.81
2022-08-07T02:27:01.269Z,61.88
2022-08-07T02:29:30.573Z,61.69
2022-08-07T02:32:00.898Z,61.83
2022-08-07T02:34:29.236Z,61.37
2022-08-07T02:37:00.278Z,60.87
2022-08-07T02:40:01.597Z,60.62
2022-08-07T02:42:19.706Z,60.84
2022-08-07T02:44:50.162Z,60.80
2022-08-07T02:47:23.716Z,60.62
2022-08-07T02:49:59.655Z,60.72
2022-08-07T02:53:03.724Z,61.08
2022-08-07T02:56:02.202Z,60.88
2022-08-07T02:58:27.171Z,60.88
2022-08-07T03:00:57.983Z,60.75
2022-08-07T03:03:42.107Z,60.81
2022-08-07T03:06:26.300Z,60.51
2022-08-07T03:09:05.932Z,60.81
2022-08-07T03:11:38.703Z,60.72
2022-08-07T03:14:07.605Z,61.18
2022-08-07T03:16:35.650Z,60.90
2022-08-07T03:19:03.523Z,60.99
2022-08-07T03:21:32.817Z,60.46
2022-08-07T03:24:19.720Z,60.71
2022-08-07T03:26:57.868Z,60.37
2022-08-07T03:29:34.023Z,60.94
2022-08-07T03:32:08.443Z,60.65
2022-08-07T03:34:47.318Z,60.68
2022-08-07T03:37:32.676Z,60.59
2022-08-07T03:40:15.731Z,60.70
2022-08-07T03:42:44.431Z,60.64
2022-08-07T03:45:30.310Z,60.58
2022-08-07T03:48:04.365Z,61.74
2022-08-07T03:50:37.520Z,61.82
2022-08-07T03:53:05.284Z,61.59
2022-08-07T03:55:57.321Z,62.22
2022-08-07T03:59:06.825Z,62.39
2022-08-07T04:01:11.468Z,62.33
2022-08-07T04:03:53.690Z,62.24
2022-08-07T04:06:38.400Z,61.94
2022-08-07T04:09:15.382Z,62.53
2022-08-07T04:12:21.519Z,63.10
2022-08-07T04:14:37.322Z,63.69
2022-08-07T04:17:20.518Z,63.79
2022-08-07T04:19:54.141Z,63.99
2022-08-07T04:22:27.464Z,64.16
2022-08-07T04:24:58.643Z,63.72
2022-08-07T04:27:27.633Z,64.33
2022-08-07T04:30:02.361Z,64.04
2022-08-07T04:32:58.650Z,64.12
2022-08-07T04:35:35.335Z,64.27
2022-08-07T04:38:11.556Z,64.30
2022-08-07T04:40:52.203Z,64.39
2022-08-07T04:44:12.364Z,65.02
2022-08-07T04:47:03.974Z,64.16
2022-08-07T04:50:04.058Z,64.30
2022-08-07T04:52:51.189Z,64.79
2022-08-07T04:58:13.157Z,65.13
2022-08-07T04:59:01.582Z,65.06
2022-08-07T05:02:05.474Z,65.06
2022-08-07T05:05:11.847Z,65.74
2022-08-07T05:08:00.457Z,65.96
2022-08-07T05:10:30.865Z,66.09
2022-08-07T05:13:10.099Z,66.42
2022-08-07T05:15:57.957Z,66.48
2022-08-07T05:18:30.763Z,66.08
2022-08-07T05:21:05.854Z,66.72
2022-08-07T05:23:45.714Z,66.40
2022-08-07T05:26:24.107Z,65.60
2022-08-07T05:28:57.837Z,64.67
2022-08-07T05:31:35.277Z,65.33
2022-08-07T05:34:11.267Z,62.91
2022-08-07T05:36:44.017Z,63.04
2022-08-07T05:40:05.842Z,63.08
2022-08-07T05:42:33.244Z,62.46
2022-08-07T05:45:14.149Z,62.68
2022-08-07T05:48:02.585Z,61.54
2022-08-07T05:50:43.321Z,62.14
2022-08-07T05:54:12.678Z,58.25
2022-08-07T05:56:03.478Z,57.32
2022-08-07T05:58:37.675Z,56.82
2022-08-07T06:01:11.011Z,55.85
2022-08-07T06:03:56.715Z,57.06
2022-08-07T06:06:29.766Z,55.28
2022-08-07T06:09:04.373Z,54.64
2022-08-07T06:11:32.648Z,55.26
2022-08-07T06:14:12.652Z,54.88
2022-08-07T06:16:50.207Z,55.31
2022-08-07T06:19:58.016Z,54.76
2022-08-07T06:22:23.551Z,54.60
2022-08-07T06:25:02.939Z,53.08
2022-08-07T06:27:54.408Z,53.97
2022-08-07T06:30:32.119Z,53.86
2022-08-07T06:33:10.046Z,52.65
2022-08-07T06:35:47.690Z,53.59
2022-08-07T06:38:31.028Z,52.86
2022-08-07T06:41:00.447Z,53.40
2022-08-07T06:43:39.793Z,52.88
2022-08-07T06:46:15.397Z,52.44
2022-08-07T06:48:57.965Z,52.00
2022-08-07T06:51:33.279Z,51.91
2022-08-07T06:55:27.735Z,50.89
2022-08-07T06:56:54.547Z,50.55
2022-08-07T07:00:14.048Z,50.05
2022-08-07T07:02:49.280Z,49.40
2022-08-07T07:05:12.581Z,48.98
2022-08-07T07:07:59.963Z,49.00
2022-08-07T07:10:31.355Z,48.60
2022-08-07T07:13:04.108Z,48.48
2022-08-07T07:15:37.737Z,47.23
2022-08-07T07:18:09.864Z,47.30
2022-08-07T07:20:46.345Z,47.64
2022-08-07T07:24:10.936Z,47.25
2022-08-07T07:26:35.842Z,46.78
2022-08-07T07:29:57.100Z,47.56
2022-08-07T07:31:48.318Z,47.21
2022-08-07T07:34:21.266Z,46.06
2022-08-07T07:36:52.738Z,46.43
2022-08-07T07:39:25.493Z,46.05
2022-08-07T07:42:08.847Z,45.23
2022-08-07T07:44:44.583Z,43.46
2022-08-07T07:47:22.868Z,42.63
2022-08-07T07:50:33.336Z,43.09
2022-08-07T07:52:41.280Z,41.49
2022-08-07T07:55:10.946Z,41.64
2022-08-07T07:57:53.354Z,41.55
2022-08-07T08:00:29.667Z,42.77
2022-08-07T08:03:09.314Z,44.21
2022-08-07T08:05:55.053Z,44.01
2022-08-07T08:08:35.314Z,44.19
2022-08-07T08:11:06.008Z,44.42
2022-08-07T08:13:53.742Z,44.68
2022-08-07T08:16:29.885Z,44.68
2022-08-07T08:19:00.466Z,43.80
2022-08-07T08:22:03.402Z,41.99
2022-08-07T08:24:57.144Z,42.30
2022-08-07T08:27:41.481Z,41.87
2022-08-07T08:30:24.386Z,42.18
2022-08-07T08:32:54.252Z,41.48
2022-08-07T08:35:25.478Z,41.35
2022-08-07T08:38:03.610Z,41.15
2022-08-07T08:40:40.447Z,41.50
2022-08-07T08:43:17.788Z,40.99
2022-08-07T08:45:59.129Z,39.88
2022-08-07T08:48:38.389Z,40.65
2022-08-07T08:52:01.141Z,39.41
2022-08-07T08:54:38.415Z,40.01
2022-08-07T08:57:11.387Z,39.54
2022-08-07T09:00:09.524Z,38.25
2022-08-07T09:02:38.914Z,37.88
2022-08-07T09:05:37.610Z,37.59
2022-08-07T09:08:39.266Z,37.58
2022-08-07T09:11:24.159Z,37.36
2022-08-07T09:14:11.016Z,36.71
2022-08-07T09:16:47.659Z,37.59
2022-08-07T09:19:51.378Z,37.51
2022-08-07T09:24:53.771Z,37.49
2022-08-07T09:25:53.439Z,36.90
2022-08-07T09:30:00.764Z,37.59
2022-08-07T09:31:49.228Z,37.00
2022-08-07T09:34:37.633Z,36.63
2022-08-07T09:37:48.434Z,36.44
2022-08-07T09:40:30.159Z,34.66
2022-08-07T09:43:40.129Z,35.84
2022-08-07T09:47:52.426Z,34.20
2022-08-07T09:49:59.444Z,32.48
2022-08-07T09:52:34.302Z,33.09
2022-08-07T09:55:29.016Z,34.26
2022-08-07T09:58:34.433Z,33.47
2022-08-07T10:01:51.439Z,33.53
2022-08-07T10:04:39.469Z,33.90
2022-08-07T10:07:26.090Z,33.50
2022-08-07T10:10:02.855Z,33.64
2022-08-07T10:13:55.250Z,33.88
2022-08-07T10:16:22.967Z,33.90
2022-08-07T10:19:11.077Z,32.51
2022-08-07T10:22:14.587Z,33.14
2022-08-07T10:25:03.188Z,32.98
2022-08-07T10:27:58.816Z,33.46
2022-08-07T10:30:56.298Z,33.54
2022-08-07T10:34:05.625Z,33.66
2022-08-07T10:37:12.726Z,33.47
2022-08-07T10:40:21.703Z,32.60
2022-08-07T10:43:15.325Z,32.82
2022-08-07T10:45:58.211Z,33.52
2022-08-07T10:48:55.259Z,33.58
2022-08-07T10:52:01.605Z,33.08
2022-08-07T10:55:00.786Z,32.73
2022-08-07T10:57:46.170Z,33.49
2022-08-07T11:00:36.157Z,32.42
2022-08-07T11:03:12.810Z,31.44
2022-08-07T11:05:49.033Z,32.13
2022-08-07T11:08:42.609Z,30.70
2022-08-07T11:11:14.003Z,31.65
2022-08-07T11:14:43.662Z,31.46
2022-08-07T11:16:52.840Z,31.85
2022-08-07T11:19:37.093Z,32.10
2022-08-07T11:22:37.034Z,32.45
2022-08-07T11:25:49.759Z,32.06
2022-08-07T11:28:34.086Z,30.23
2022-08-07T11:31:33.228Z,29.94
2022-08-07T11:34:16.534Z,30.84
2022-08-07T11:37:02.727Z,30.55
2022-08-07T11:40:00.302Z,30.08
2022-08-07T11:42:52.791Z,30.37
2022-08-07T11:45:38.160Z,29.98
2022-08-07T11:49:28.686Z,29.90
2022-08-07T11:51:46.818Z,30.64
2022-08-07T11:54:54.865Z,30.77
2022-08-07T11:57:57.710Z,30.69
2022-08-07T12:00:29.321Z,30.71
2022-08-07T12:03:41.942Z,30.43
2022-08-07T12:06:39.070Z,31.47
2022-08-07T12:09:22.995Z,31.77
2022-08-07T12:12:12.305Z,29.11
2022-08-07T12:14:56.313Z,30.24
2022-08-07T12:17:59.447Z,29.64
2022-08-07T12:20:45.734Z,30.12
2022-08-07T12:24:05.444Z,29.95
2022-08-07T12:26:49.409Z,30.26
2022-08-07T12:29:38.103Z,29.11
2022-08-07T12:32:15.597Z,29.42
2022-08-07T12:34:49.345Z,29.53
2022-08-07T12:37:27.996Z,29.41
2022-08-07T12:40:24.174Z,28.94
2022-08-07T12:43:01.618Z,29.31
2022-08-07T12:45:53.150Z,28.89
2022-08-07T12:48:52.860Z,28.90
2022-08-07T12:51:46.592Z,28.71
2022-08-07T12:54:38.281Z,29.24
2022-08-07T12:57:09.521Z,29.07
2022-08-07T12:59:54.676Z,29.63
2022-08-07T13:03:06.976Z,28.81
2022-08-07T13:06:21.987Z,28.87
2022-08-07T13:09:12.715Z,30.10
2022-08-07T13:12:21.878Z,27.30
2022-08-07T13:15:14.307Z,27.46
2022-08-07T13:17:59.586Z,28.56
2022-08-07T13:20:39.114Z,28.06
2022-08-07T13:24:01.872Z,27.99
2022-08-07T13:26:15.998Z,28.21
2022-08-07T13:29:08.888Z,27.95
2022-08-07T13:31:55.030Z,27.63
2022-08-07T13:34:44.797Z,28.26
2022-08-07T13:37:27.430Z,29.52
2022-08-07T13:40:36.239Z,29.73
2022-08-07T13:43:13.526Z,30.33
2022-08-07T13:46:10.905Z,29.98
2022-08-07T13:48:35.019Z,29.42
2022-08-07T13:51:27.413Z,29.55
2022-08-07T13:54:02.105Z,29.24
2022-08-07T13:56:35.582Z,29.47
2022-08-07T13:59:25.703Z,29.77
2022-08-07T14:02:29.790Z,28.90
2022-08-07T14:05:09.235Z,28.33
2022-08-07T14:07:59.672Z,27.54
2022-08-07T14:10:42.079Z,27.80
2022-08-07T14:13:16.236Z,27.65
2022-08-07T14:15:44.439Z,27.92
2022-08-07T14:18:29.252Z,27.71
2022-08-07T14:21:08.290Z,27.70
2022-08-07T14:23:58.991Z,28.20
2022-08-07T14:26:32.409Z,27.84
2022-08-07T14:29:08.615Z,28.54
2022-08-07T14:31:57.786Z,28.81
2022-08-07T14:34:30.362Z,28.99
2022-08-07T14:37:01.727Z,29.13
2022-08-07T14:40:15.759Z,28.55
2022-08-07T14:42:24.893Z,28.09
2022-08-07T14:44:59.895Z,28.79
2022-08-07T14:47:44.927Z,29.77
2022-08-07T14:50:19.111Z,29.50
2022-08-07T14:52:47.854Z,29.79
2022-08-07T14:55:18.036Z,27.74
2022-08-07T14:57:58.326Z,27.44
2022-08-07T15:00:39.392Z,27.14
2022-08-07T15:03:16.530Z,27.55
2022-08-07T15:05:54.230Z,27.16
2022-08-07T15:08:32.407Z,26.89
2022-08-07T15:11:06.208Z,27.34
2022-08-07T15:13:37.820Z,27.55
2022-08-07T15:19:00.716Z,28.37
2022-08-07T15:21:44.041Z,28.88
2022-08-07T15:25:14.673Z,28.78
2022-08-07T15:27:07.020Z,28.92
2022-08-07T15:30:09.322Z,29.09
2022-08-07T15:36:01.782Z,29.70
2022-08-07T15:38:31.170Z,30.16
2022-08-07T15:41:23.568Z,29.93
2022-08-07T15:44:01.246Z,29.72
2022-08-07T15:46:32.284Z,29.53
2022-08-07T15:49:12.724Z,29.31
2022-08-07T15:54:34.625Z,30.27
2022-08-07T15:57:39.689Z,29.47
2022-08-07T16:00:04.429Z,30.08
2022-08-07T16:02:41.430Z,29.98
2022-08-07T16:05:20.048Z,31.36
2022-08-07T16:08:31.068Z,31.55
2022-08-07T16:10:48.787Z,31.98
2022-08-07T16:13:58.064Z,31.99
2022-08-07T16:16:48.222Z,32.06
2022-08-07T16:19:58.680Z,33.05
2022-08-07T16:22:33.715Z,32.96
2022-08-07T16:25:22.991Z,32.84
2022-08-07T16:30:08.899Z,33.34
2022-08-07T16:31:50.174Z,32.45
2022-08-07T16:34:27.526Z,32.57
2022-08-07T16:38:03.681Z,32.64
2022-08-07T16:40:36.308Z,33.68
2022-08-07T16:44:05.843Z,33.70
2022-08-07T16:47:16.044Z,32.89
2022-08-07T16:50:38.764Z,33.63
2022-08-07T16:54:01.603Z,33.50
2022-08-07T16:56:37.430Z,34.37
2022-08-07T16:59:24.519Z,34.17
2022-08-07T17:02:13.733Z,33.99
2022-08-07T17:06:18.944Z,34.69
2022-08-07T17:08:05.785Z,35.17
2022-08-07T17:10:39.208Z,35.34
2022-08-07T17:13:24.911Z,34.32
2022-08-07T17:16:33.741Z,34.68
2022-08-07T17:19:15.734Z,34.73
2022-08-07T17:21:55.449Z,34.95
2022-08-07T17:24:43.016Z,34.55
2022-08-07T17:27:35.767Z,34.47
2022-08-07T17:30:15.733Z,34.65
2022-08-07T17:34:09.586Z,34.57
2022-08-07T17:35:55.908Z,34.86
2022-08-07T17:38:35.207Z,34.83
2022-08-07T17:42:03.051Z,34.48
2022-08-07T17:44:45.595Z,34.69
2022-08-07T17:47:42.273Z,35.22
2022-08-07T17:50:23.357Z,34.82
2022-08-07T17:53:05.894Z,35.16
2022-08-07T17:56:00.566Z,35.29
2022-08-07T17:58:50.068Z,35.69
2022-08-07T18:01:26.672Z,35.71
2022-08-07T18:04:16.313Z,36.50
2022-08-07T18:07:19.155Z,35.95
2022-08-07T18:10:06.862Z,35.92
2022-08-07T18:12:39.967Z,36.27
2022-08-07T18:15:42.804Z,35.97
2022-08-07T18:19:02.717Z,36.31
2022-08-07T18:21:38.297Z,36.71
2022-08-07T18:24:11.936Z,37.03
2022-08-07T18:27:38.785Z,37.71
2022-08-07T18:30:31.124Z,38.26
2022-08-07T18:33:27.276Z,38.17
2022-08-07T18:36:14.187Z,38.77
2022-08-07T18:40:04.921Z,38.95
2022-08-07T18:42:03.971Z,38.74
2022-08-07T18:45:43.518Z,38.20
2022-08-07T18:49:03.739Z,38.33
2022-08-07T18:52:33.854Z,38.27
2022-08-07T18:54:30.604Z,38.09
2022-08-07T18:57:29.413Z,38.01
2022-08-07T19:00:33.401Z,38.29
2022-08-07T19:03:11.876Z,38.85
2022-08-07T19:06:04.162Z,38.69
2022-08-07T19:08:58.468Z,38.99
2022-08-07T19:11:37.601Z,38.54
2022-08-07T19:14:08.051Z,38.62
2022-08-07T19:17:09.385Z,38.42
2022-08-07T19:19:45.310Z,38.72
2022-08-07T19:22:44.864Z,38.93
2022-08-07T19:26:23.664Z,39.34
2022-08-07T19:28:58.223Z,39.31
2022-08-07T19:31:41.947Z,39.09
2022-08-07T19:33:57.907Z,39.44
2022-08-07T19:36:27.679Z,39.37
2022-08-07T19:38:58.978Z,39.54
2022-08-07T19:41:44.568Z,39.85
2022-08-07T19:44:21.363Z,39.20
2022-08-07T19:46:57.526Z,39.95
2022-08-07T19:49:57.934Z,39.71
2022-08-07T19:52:18.562Z,39.63
2022-08-07T19:54:55.692Z,39.74
2022-08-07T19:57:59.984Z,40.32
2022-08-07T20:00:34.632Z,39.89
2022-08-07T20:03:05.945Z,39.73
2022-08-07T20:06:01.189Z,39.84
2022-08-07T20:08:32.918Z,40.04
2022-08-07T20:11:09.882Z,40.02
2022-08-07T20:14:07.316Z,40.07
2022-08-07T20:16:48.135Z,39.91
2022-08-07T20:19:25.052Z,39.99
2022-08-07T20:21:56.952Z,40.10
2022-08-07T20:24:32.313Z,39.75
2022-08-07T20:27:02.316Z,39.31
2022-08-07T20:29:48.855Z,39.96
2022-08-07T20:32:42.989Z,39.94
2022-08-07T20:35:22.025Z,40.15
2022-08-07T20:37:55.599Z,40.22
2022-08-07T20:40:33.172Z,40.45
2022-08-07T20:43:03.090Z,40.56
2022-08-07T20:46:29.060Z,40.41
2022-08-07T20:48:28.887Z,40.45
2022-08-07T20:50:59.924Z,40.70
2022-08-07T20:54:02.858Z,40.64
2022-08-07T20:56:16.525Z,40.98
2022-08-07T20:58:50.331Z,41.18
2022-08-07T21:01:21.150Z,41.24
2022-08-07T21:04:18.579Z,41.32
2022-08-07T21:06:46.610Z,41.42
2022-08-07T21:09:24.408Z,41.58
2022-08-07T21:11:57.005Z,41.77
2022-08-07T21:14:34.040Z,41.84
2022-08-07T21:18:00.575Z,42.05
2022-08-07T21:20:04.724Z,42.06
2022-08-07T21:22:53.507Z,42.26
2022-08-07T21:25:38.683Z,42.53
2022-08-07T21:28:18.861Z,42.81
2022-08-07T21:31:00.722Z,42.35
2022-08-07T21:33:44.868Z,42.60
2022-08-07T21:36:31.198Z,42.95
2022-08-07T21:39:45.270Z,42.82
2022-08-07T21:46:05.142Z,43.44
2022-08-07T21:48:29.012Z,44.03
2022-08-07T21:51:25.447Z,43.94
2022-08-07T21:54:14.181Z,44.55
2022-08-07T21:56:51.956Z,44.46
2022-08-07T22:00:04.444Z,45.03
2022-08-07T22:02:46.928Z,44.95
2022-08-07T22:05:43.853Z,45.46
2022-08-07T22:08:10.563Z,45.56
2022-08-07T22:10:38.397Z,45.52
2022-08-07T22:13:14.236Z,45.92
2022-08-07T22:16:45.110Z,46.10
2022-08-07T22:18:43.059Z,46.11
2022-08-07T22:21:15.483Z,46.56
2022-08-07T22:23:57.170Z,46.53
2022-08-07T22:26:37.282Z,46.80
2022-08-07T22:29:23.630Z,47.34
2022-08-07T22:32:20.506Z,47.44
2022-08-07T22:34:54.964Z,47.70
2022-08-07T22:38:01.710Z,47.59
2022-08-07T22:40:38.541Z,47.60
2022-08-07T22:43:14.306Z,47.82
2022-08-07T22:46:21.140Z,47.93
2022-08-07T22:49:18.805Z,47.80
2022-08-07T22:51:54.820Z,48.67
2022-08-07T22:54:49.261Z,48.67
2022-08-07T22:57:26.014Z,49.00
2022-08-07T23:00:12.314Z,48.89
2022-08-07T23:02:48.246Z,48.74
2022-08-07T23:06:10.128Z,49.47
2022-08-07T23:08:46.818Z,49.11
2022-08-07T23:11:25.112Z,49.24
2022-08-07T23:14:17.517Z,49.52
2022-08-07T23:17:02.572Z,49.79
2022-08-07T23:20:03.408Z,49.97
2022-08-07T23:22:30.990Z,50.25
2022-08-07T23:25:28.203Z,50.10
2022-08-07T23:28:22.745Z,50.59
2022-08-07T23:32:49.463Z,50.57
2022-08-07T23:34:39.739Z,50.93
2022-08-07T23:37:19.142Z,51.27
2022-08-07T23:40:07.407Z,51.57
2022-08-07T23:43:16.889Z,51.56
2022-08-07T23:46:23.780Z,51.99
2022-08-07T23:49:15.360Z,52.19
2022-08-07T23:53:00.112Z,52.63
2022-08-07T23:54:52.157Z,52.41
2022-08-07T23:57:22.399Z,52.37
